sensor_id;sensor_type;location;lat;lon;timestamp;P1;durP1;ratioP1;P2;durP2;ratioP2
12792;SDS011;6460;42.684;23.260;2023-05-10T00:00:12;7.47;;;4.83;;
12792;SDS011;6460;42.684;23.260;2023-05-10T00:02:40;5.63;;;4.90;;
12792;SDS011;6460;42.684;23.260;2023-05-10T00:05:08;6.60;;;5.20;;
12792;SDS011;6460;42.684;23.260;2023-05-10T00:07:35;6.37;;;4.83;;
12792;SDS011;6460;42.684;23.260;2023-05-10T00:10:03;6.30;;;5.43;;
12792;SDS011;6460;42.684;23.260;2023-05-10T00:12:30;6.23;;;5.23;;
12792;SDS011;6460;42.684;23.260;2023-05-10T00:14:58;6.43;;;4.93;;
12792;SDS011;6460;42.684;23.260;2023-05-10T00:17:27;6.73;;;5.20;;
12792;SDS011;6460;42.684;23.260;2023-05-10T00:19:54;6.90;;;5.50;;
12792;SDS011;6460;42.684;23.260;2023-05-10T00:22:21;8.53;;;6.90;;
12792;SDS011;6460;42.684;23.260;2023-05-10T00:24:49;6.33;;;5.27;;
12792;SDS011;6460;42.684;23.260;2023-05-10T00:27:16;7.33;;;5.03;;
12792;SDS011;6460;42.684;23.260;2023-05-10T00:29:44;5.67;;;5.07;;
12792;SDS011;6460;42.684;23.260;2023-05-10T00:32:11;6.00;;;5.40;;
12792;SDS011;6460;42.684;23.260;2023-05-10T00:34:46;5.77;;;4.83;;
12792;SDS011;6460;42.684;23.260;2023-05-10T00:37:13;6.63;;;5.20;;
12792;SDS011;6460;42.684;23.260;2023-05-10T00:39:40;7.37;;;5.80;;
12792;SDS011;6460;42.684;23.260;2023-05-10T00:42:07;6.23;;;5.53;;
12792;SDS011;6460;42.684;23.260;2023-05-10T00:44:34;7.70;;;5.60;;
12792;SDS011;6460;42.684;23.260;2023-05-10T00:47:02;6.30;;;5.63;;
12792;SDS011;6460;42.684;23.260;2023-05-10T00:49:29;8.80;;;5.33;;
12792;SDS011;6460;42.684;23.260;2023-05-10T00:51:58;6.37;;;5.70;;
12792;SDS011;6460;42.684;23.260;2023-05-10T00:54:27;6.17;;;5.43;;
12792;SDS011;6460;42.684;23.260;2023-05-10T00:56:54;7.33;;;5.70;;
12792;SDS011;6460;42.684;23.260;2023-05-10T00:59:22;6.67;;;5.80;;
12792;SDS011;6460;42.684;23.260;2023-05-10T01:01:50;7.07;;;6.10;;
12792;SDS011;6460;42.684;23.260;2023-05-10T01:04:17;7.23;;;5.73;;
12792;SDS011;6460;42.684;23.260;2023-05-10T01:06:50;7.17;;;6.23;;
12792;SDS011;6460;42.684;23.260;2023-05-10T01:09:19;6.60;;;5.60;;
12792;SDS011;6460;42.684;23.260;2023-05-10T01:11:47;8.07;;;6.60;;
12792;SDS011;6460;42.684;23.260;2023-05-10T01:14:16;7.43;;;6.20;;
12792;SDS011;6460;42.684;23.260;2023-05-10T01:16:46;6.97;;;6.07;;
12792;SDS011;6460;42.684;23.260;2023-05-10T01:19:17;7.13;;;5.83;;
12792;SDS011;6460;42.684;23.260;2023-05-10T01:21:49;6.73;;;5.90;;
12792;SDS011;6460;42.684;23.260;2023-05-10T01:24:38;7.03;;;6.33;;
12792;SDS011;6460;42.684;23.260;2023-05-10T01:30:30;8.10;;;6.03;;
12792;SDS011;6460;42.684;23.260;2023-05-10T01:33:19;8.10;;;6.43;;
12792;SDS011;6460;42.684;23.260;2023-05-10T01:35:51;9.13;;;6.57;;
12792;SDS011;6460;42.684;23.260;2023-05-10T01:38:26;7.60;;;6.37;;
12792;SDS011;6460;42.684;23.260;2023-05-10T01:41:01;8.57;;;6.20;;
12792;SDS011;6460;42.684;23.260;2023-05-10T01:43:36;6.00;;;5.40;;
12792;SDS011;6460;42.684;23.260;2023-05-10T01:46:10;7.17;;;5.63;;
12792;SDS011;6460;42.684;23.260;2023-05-10T01:48:47;6.77;;;5.30;;
12792;SDS011;6460;42.684;23.260;2023-05-10T01:51:19;6.60;;;5.50;;
12792;SDS011;6460;42.684;23.260;2023-05-10T01:53:51;6.30;;;4.83;;
12792;SDS011;6460;42.684;23.260;2023-05-10T01:56:25;5.53;;;4.53;;
12792;SDS011;6460;42.684;23.260;2023-05-10T01:58:55;5.47;;;4.57;;
12792;SDS011;6460;42.684;23.260;2023-05-10T02:01:23;5.23;;;4.70;;
12792;SDS011;6460;42.684;23.260;2023-05-10T02:03:54;4.97;;;4.23;;
12792;SDS011;6460;42.684;23.260;2023-05-10T02:06:23;5.47;;;4.73;;
12792;SDS011;6460;42.684;23.260;2023-05-10T02:08:53;5.03;;;4.30;;
12792;SDS011;6460;42.684;23.260;2023-05-10T02:11:22;4.87;;;4.37;;
12792;SDS011;6460;42.684;23.260;2023-05-10T02:13:51;5.20;;;4.47;;
12792;SDS011;6460;42.684;23.260;2023-05-10T02:16:22;5.13;;;4.63;;
12792;SDS011;6460;42.684;23.260;2023-05-10T02:18:54;4.63;;;4.13;;
12792;SDS011;6460;42.684;23.260;2023-05-10T02:21:25;4.97;;;4.00;;
12792;SDS011;6460;42.684;23.260;2023-05-10T02:23:54;4.83;;;3.50;;
12792;SDS011;6460;42.684;23.260;2023-05-10T02:26:23;6.53;;;3.83;;
12792;SDS011;6460;42.684;23.260;2023-05-10T02:28:53;4.63;;;4.10;;
12792;SDS011;6460;42.684;23.260;2023-05-10T02:31:21;5.20;;;4.00;;
12792;SDS011;6460;42.684;23.260;2023-05-10T02:33:49;5.03;;;4.50;;
12792;SDS011;6460;42.684;23.260;2023-05-10T02:36:19;5.07;;;4.27;;
12792;SDS011;6460;42.684;23.260;2023-05-10T02:38:48;4.73;;;4.23;;
12792;SDS011;6460;42.684;23.260;2023-05-10T02:41:18;5.53;;;3.93;;
12792;SDS011;6460;42.684;23.260;2023-05-10T02:43:48;5.40;;;4.10;;
12792;SDS011;6460;42.684;23.260;2023-05-10T02:46:17;5.00;;;3.87;;
12792;SDS011;6460;42.684;23.260;2023-05-10T02:48:44;4.47;;;3.60;;
12792;SDS011;6460;42.684;23.260;2023-05-10T02:51:12;5.73;;;4.30;;
12792;SDS011;6460;42.684;23.260;2023-05-10T02:53:46;4.30;;;3.77;;
12792;SDS011;6460;42.684;23.260;2023-05-10T02:56:18;6.07;;;4.17;;
12792;SDS011;6460;42.684;23.260;2023-05-10T02:58:51;5.87;;;4.03;;
12792;SDS011;6460;42.684;23.260;2023-05-10T03:01:19;4.80;;;3.87;;
12792;SDS011;6460;42.684;23.260;2023-05-10T03:03:46;5.70;;;4.17;;
12792;SDS011;6460;42.684;23.260;2023-05-10T03:06:13;5.07;;;4.40;;
12792;SDS011;6460;42.684;23.260;2023-05-10T03:08:41;5.20;;;4.00;;
12792;SDS011;6460;42.684;23.260;2023-05-10T03:11:16;5.53;;;4.20;;
12792;SDS011;6460;42.684;23.260;2023-05-10T03:13:54;5.77;;;4.43;;
12792;SDS011;6460;42.684;23.260;2023-05-10T03:16:32;5.37;;;4.30;;
12792;SDS011;6460;42.684;23.260;2023-05-10T03:19:06;4.33;;;3.63;;
12792;SDS011;6460;42.684;23.260;2023-05-10T03:21:40;5.97;;;4.43;;
12792;SDS011;6460;42.684;23.260;2023-05-10T03:24:09;5.10;;;4.17;;
12792;SDS011;6460;42.684;23.260;2023-05-10T03:26:41;5.60;;;4.40;;
12792;SDS011;6460;42.684;23.260;2023-05-10T03:29:11;5.80;;;4.20;;
12792;SDS011;6460;42.684;23.260;2023-05-10T03:31:40;5.20;;;4.00;;
12792;SDS011;6460;42.684;23.260;2023-05-10T03:34:08;5.17;;;4.20;;
12792;SDS011;6460;42.684;23.260;2023-05-10T03:36:36;5.43;;;4.17;;
12792;SDS011;6460;42.684;23.260;2023-05-10T03:39:03;4.70;;;3.90;;
12792;SDS011;6460;42.684;23.260;2023-05-10T03:41:30;5.20;;;4.20;;
12792;SDS011;6460;42.684;23.260;2023-05-10T03:43:58;4.83;;;4.30;;
12792;SDS011;6460;42.684;23.260;2023-05-10T03:46:26;4.53;;;3.87;;
12792;SDS011;6460;42.684;23.260;2023-05-10T03:48:53;5.90;;;4.43;;
12792;SDS011;6460;42.684;23.260;2023-05-10T03:51:20;5.00;;;4.10;;
12792;SDS011;6460;42.684;23.260;2023-05-10T03:53:48;5.40;;;4.40;;
12792;SDS011;6460;42.684;23.260;2023-05-10T03:56:15;4.67;;;3.93;;
12792;SDS011;6460;42.684;23.260;2023-05-10T03:58:42;5.57;;;4.10;;
12792;SDS011;6460;42.684;23.260;2023-05-10T04:01:11;4.93;;;3.63;;
12792;SDS011;6460;42.684;23.260;2023-05-10T04:03:38;5.40;;;3.57;;
12792;SDS011;6460;42.684;23.260;2023-05-10T04:06:06;5.70;;;4.00;;
12792;SDS011;6460;42.684;23.260;2023-05-10T04:08:36;4.40;;;4.00;;
12792;SDS011;6460;42.684;23.260;2023-05-10T04:11:04;5.40;;;3.70;;
12792;SDS011;6460;42.684;23.260;2023-05-10T04:13:33;4.90;;;3.97;;
12792;SDS011;6460;42.684;23.260;2023-05-10T04:16:00;4.70;;;3.90;;
12792;SDS011;6460;42.684;23.260;2023-05-10T04:18:29;4.50;;;4.10;;
12792;SDS011;6460;42.684;23.260;2023-05-10T04:20:56;4.27;;;3.87;;
12792;SDS011;6460;42.684;23.260;2023-05-10T04:23:23;6.23;;;3.97;;
12792;SDS011;6460;42.684;23.260;2023-05-10T04:25:52;4.20;;;3.40;;
12792;SDS011;6460;42.684;23.260;2023-05-10T04:28:19;5.10;;;3.80;;
12792;SDS011;6460;42.684;23.260;2023-05-10T04:30:47;4.90;;;4.00;;
12792;SDS011;6460;42.684;23.260;2023-05-10T04:33:14;4.80;;;4.10;;
12792;SDS011;6460;42.684;23.260;2023-05-10T04:35:43;4.57;;;3.90;;
12792;SDS011;6460;42.684;23.260;2023-05-10T04:38:10;5.57;;;4.40;;
12792;SDS011;6460;42.684;23.260;2023-05-10T04:40:39;4.73;;;4.20;;
12792;SDS011;6460;42.684;23.260;2023-05-10T04:43:07;4.53;;;4.10;;
12792;SDS011;6460;42.684;23.260;2023-05-10T04:45:34;6.67;;;4.70;;
12792;SDS011;6460;42.684;23.260;2023-05-10T04:48:01;5.43;;;4.40;;
12792;SDS011;6460;42.684;23.260;2023-05-10T04:50:29;7.23;;;4.90;;
12792;SDS011;6460;42.684;23.260;2023-05-10T04:52:58;5.73;;;4.63;;
12792;SDS011;6460;42.684;23.260;2023-05-10T04:55:25;6.73;;;5.43;;
12792;SDS011;6460;42.684;23.260;2023-05-10T04:57:53;8.03;;;5.27;;
12792;SDS011;6460;42.684;23.260;2023-05-10T05:00:22;9.13;;;5.90;;
12792;SDS011;6460;42.684;23.260;2023-05-10T05:02:50;9.43;;;5.77;;
12792;SDS011;6460;42.684;23.260;2023-05-10T05:05:17;7.03;;;5.33;;
12792;SDS011;6460;42.684;23.260;2023-05-10T05:07:45;7.03;;;5.53;;
12792;SDS011;6460;42.684;23.260;2023-05-10T05:10:13;7.30;;;5.13;;
12792;SDS011;6460;42.684;23.260;2023-05-10T05:12:41;7.20;;;4.43;;
12792;SDS011;6460;42.684;23.260;2023-05-10T05:15:09;6.47;;;4.80;;
12792;SDS011;6460;42.684;23.260;2023-05-10T05:17:37;4.97;;;4.47;;
12792;SDS011;6460;42.684;23.260;2023-05-10T05:20:05;7.77;;;4.87;;
12792;SDS011;6460;42.684;23.260;2023-05-10T05:22:33;6.33;;;4.90;;
12792;SDS011;6460;42.684;23.260;2023-05-10T05:25:00;6.37;;;4.77;;
12792;SDS011;6460;42.684;23.260;2023-05-10T05:27:30;5.27;;;4.40;;
12792;SDS011;6460;42.684;23.260;2023-05-10T05:29:58;6.33;;;4.87;;
12792;SDS011;6460;42.684;23.260;2023-05-10T05:32:25;6.67;;;4.77;;
12792;SDS011;6460;42.684;23.260;2023-05-10T05:34:52;6.40;;;5.50;;
12792;SDS011;6460;42.684;23.260;2023-05-10T05:37:20;6.33;;;5.13;;
12792;SDS011;6460;42.684;23.260;2023-05-10T05:39:48;7.90;;;5.50;;
12792;SDS011;6460;42.684;23.260;2023-05-10T05:42:15;6.27;;;5.13;;
12792;SDS011;6460;42.684;23.260;2023-05-10T05:44:45;7.73;;;5.67;;
12792;SDS011;6460;42.684;23.260;2023-05-10T05:47:12;6.07;;;5.30;;
12792;SDS011;6460;42.684;23.260;2023-05-10T05:49:39;6.97;;;5.67;;
12792;SDS011;6460;42.684;23.260;2023-05-10T05:52:07;6.60;;;5.27;;
12792;SDS011;6460;42.684;23.260;2023-05-10T05:54:34;10.17;;;5.73;;
12792;SDS011;6460;42.684;23.260;2023-05-10T05:57:02;7.37;;;5.90;;
12792;SDS011;6460;42.684;23.260;2023-05-10T05:59:29;8.57;;;6.63;;
12792;SDS011;6460;42.684;23.260;2023-05-10T06:01:58;7.17;;;5.67;;
12792;SDS011;6460;42.684;23.260;2023-05-10T06:04:26;7.43;;;5.37;;
12792;SDS011;6460;42.684;23.260;2023-05-10T06:06:53;9.10;;;5.97;;
12792;SDS011;6460;42.684;23.260;2023-05-10T06:09:20;13.50;;;9.60;;
12792;SDS011;6460;42.684;23.260;2023-05-10T06:11:49;8.17;;;6.40;;
12792;SDS011;6460;42.684;23.260;2023-05-10T06:14:17;8.40;;;6.20;;
12792;SDS011;6460;42.684;23.260;2023-05-10T06:16:44;26.27;;;18.30;;
12792;SDS011;6460;42.684;23.260;2023-05-10T06:19:12;9.40;;;7.30;;
12792;SDS011;6460;42.684;23.260;2023-05-10T06:21:39;8.37;;;7.00;;
12792;SDS011;6460;42.684;23.260;2023-05-10T06:24:06;8.07;;;6.57;;
12792;SDS011;6460;42.684;23.260;2023-05-10T06:26:33;8.23;;;6.40;;
12792;SDS011;6460;42.684;23.260;2023-05-10T06:29:00;8.73;;;6.20;;
12792;SDS011;6460;42.684;23.260;2023-05-10T06:31:27;10.20;;;7.40;;
12792;SDS011;6460;42.684;23.260;2023-05-10T06:33:54;10.23;;;7.57;;
12792;SDS011;6460;42.684;23.260;2023-05-10T06:36:22;9.53;;;7.37;;
12792;SDS011;6460;42.684;23.260;2023-05-10T06:38:51;11.03;;;7.37;;
12792;SDS011;6460;42.684;23.260;2023-05-10T06:41:18;8.87;;;7.10;;
12792;SDS011;6460;42.684;23.260;2023-05-10T06:43:46;8.53;;;6.77;;
12792;SDS011;6460;42.684;23.260;2023-05-10T06:46:13;9.17;;;6.63;;
12792;SDS011;6460;42.684;23.260;2023-05-10T06:48:40;7.07;;;6.17;;
12792;SDS011;6460;42.684;23.260;2023-05-10T06:51:07;9.30;;;6.50;;
12792;SDS011;6460;42.684;23.260;2023-05-10T06:53:36;9.17;;;6.20;;
12792;SDS011;6460;42.684;23.260;2023-05-10T06:56:03;8.97;;;7.30;;
12792;SDS011;6460;42.684;23.260;2023-05-10T06:58:30;9.63;;;7.13;;
12792;SDS011;6460;42.684;23.260;2023-05-10T07:01:01;9.03;;;6.57;;
12792;SDS011;6460;42.684;23.260;2023-05-10T07:03:30;8.43;;;6.80;;
12792;SDS011;6460;42.684;23.260;2023-05-10T07:06:01;10.77;;;6.57;;
12792;SDS011;6460;42.684;23.260;2023-05-10T07:08:29;10.77;;;7.10;;
12792;SDS011;6460;42.684;23.260;2023-05-10T07:11:02;7.83;;;6.13;;
12792;SDS011;6460;42.684;23.260;2023-05-10T07:13:30;9.30;;;6.30;;
12792;SDS011;6460;42.684;23.260;2023-05-10T07:15:58;9.40;;;7.10;;
12792;SDS011;6460;42.684;23.260;2023-05-10T07:18:25;10.57;;;6.80;;
12792;SDS011;6460;42.684;23.260;2023-05-10T07:20:53;9.73;;;6.53;;
12792;SDS011;6460;42.684;23.260;2023-05-10T07:23:20;8.67;;;6.67;;
12792;SDS011;6460;42.684;23.260;2023-05-10T07:25:47;9.60;;;6.40;;
12792;SDS011;6460;42.684;23.260;2023-05-10T07:28:18;6.90;;;5.80;;
12792;SDS011;6460;42.684;23.260;2023-05-10T07:30:45;11.03;;;6.77;;
12792;SDS011;6460;42.684;23.260;2023-05-10T07:33:13;8.23;;;6.77;;
12792;SDS011;6460;42.684;23.260;2023-05-10T07:35:40;7.33;;;6.07;;
12792;SDS011;6460;42.684;23.260;2023-05-10T07:38:07;8.77;;;6.27;;
12792;SDS011;6460;42.684;23.260;2023-05-10T07:40:36;8.60;;;6.50;;
12792;SDS011;6460;42.684;23.260;2023-05-10T07:43:04;10.80;;;6.87;;
12792;SDS011;6460;42.684;23.260;2023-05-10T07:45:33;10.67;;;7.30;;
12792;SDS011;6460;42.684;23.260;2023-05-10T07:48:00;11.03;;;7.33;;
12792;SDS011;6460;42.684;23.260;2023-05-10T07:50:28;10.70;;;7.67;;
12792;SDS011;6460;42.684;23.260;2023-05-10T07:52:56;9.13;;;6.77;;
12792;SDS011;6460;42.684;23.260;2023-05-10T07:55:23;8.80;;;7.07;;
12792;SDS011;6460;42.684;23.260;2023-05-10T07:57:51;9.37;;;6.77;;
12792;SDS011;6460;42.684;23.260;2023-05-10T08:00:19;9.53;;;6.80;;
12792;SDS011;6460;42.684;23.260;2023-05-10T08:02:48;8.87;;;6.77;;
12792;SDS011;6460;42.684;23.260;2023-05-10T08:05:15;10.50;;;7.60;;
12792;SDS011;6460;42.684;23.260;2023-05-10T08:07:42;8.23;;;6.60;;
12792;SDS011;6460;42.684;23.260;2023-05-10T08:10:10;10.03;;;7.47;;
12792;SDS011;6460;42.684;23.260;2023-05-10T08:12:37;15.53;;;10.83;;
12792;SDS011;6460;42.684;23.260;2023-05-10T08:15:05;9.50;;;7.90;;
12792;SDS011;6460;42.684;23.260;2023-05-10T08:17:33;9.23;;;7.27;;
12792;SDS011;6460;42.684;23.260;2023-05-10T08:20:02;9.40;;;7.17;;
12792;SDS011;6460;42.684;23.260;2023-05-10T08:22:29;9.90;;;7.30;;
12792;SDS011;6460;42.684;23.260;2023-05-10T08:24:56;10.00;;;7.90;;
12792;SDS011;6460;42.684;23.260;2023-05-10T08:27:23;8.93;;;7.23;;
12792;SDS011;6460;42.684;23.260;2023-05-10T08:29:50;9.27;;;7.70;;
12792;SDS011;6460;42.684;23.260;2023-05-10T08:32:17;10.87;;;8.07;;
12792;SDS011;6460;42.684;23.260;2023-05-10T08:34:44;10.47;;;7.90;;
12792;SDS011;6460;42.684;23.260;2023-05-10T08:37:12;9.07;;;7.40;;
12792;SDS011;6460;42.684;23.260;2023-05-10T08:39:40;10.60;;;7.93;;
12792;SDS011;6460;42.684;23.260;2023-05-10T08:42:07;7.97;;;6.47;;
12792;SDS011;6460;42.684;23.260;2023-05-10T08:44:35;8.23;;;6.50;;
12792;SDS011;6460;42.684;23.260;2023-05-10T08:47:04;8.60;;;7.13;;
12792;SDS011;6460;42.684;23.260;2023-05-10T08:49:32;9.20;;;7.77;;
12792;SDS011;6460;42.684;23.260;2023-05-10T08:52:01;10.27;;;7.90;;
12792;SDS011;6460;42.684;23.260;2023-05-10T08:54:35;8.27;;;7.40;;
12792;SDS011;6460;42.684;23.260;2023-05-10T08:57:03;10.03;;;7.57;;
12792;SDS011;6460;42.684;23.260;2023-05-10T08:59:30;9.60;;;7.20;;
12792;SDS011;6460;42.684;23.260;2023-05-10T09:01:58;8.40;;;6.93;;
12792;SDS011;6460;42.684;23.260;2023-05-10T09:04:27;8.53;;;7.57;;
12792;SDS011;6460;42.684;23.260;2023-05-10T09:06:55;10.13;;;7.50;;
12792;SDS011;6460;42.684;23.260;2023-05-10T09:09:23;8.33;;;6.80;;
12792;SDS011;6460;42.684;23.260;2023-05-10T09:11:53;8.63;;;7.37;;
12792;SDS011;6460;42.684;23.260;2023-05-10T09:14:20;9.33;;;6.93;;
12792;SDS011;6460;42.684;23.260;2023-05-10T09:16:50;8.47;;;7.07;;
12792;SDS011;6460;42.684;23.260;2023-05-10T09:19:19;9.80;;;6.93;;
12792;SDS011;6460;42.684;23.260;2023-05-10T09:21:46;10.63;;;7.87;;
12792;SDS011;6460;42.684;23.260;2023-05-10T09:24:12;8.20;;;6.60;;
12792;SDS011;6460;42.684;23.260;2023-05-10T09:26:45;8.37;;;7.37;;
12792;SDS011;6460;42.684;23.260;2023-05-10T09:29:14;8.13;;;7.10;;
12792;SDS011;6460;42.684;23.260;2023-05-10T09:31:45;9.73;;;7.30;;
12792;SDS011;6460;42.684;23.260;2023-05-10T09:34:16;8.33;;;7.40;;
12792;SDS011;6460;42.684;23.260;2023-05-10T09:36:51;10.13;;;7.67;;
12792;SDS011;6460;42.684;23.260;2023-05-10T09:39:20;8.80;;;7.47;;
12792;SDS011;6460;42.684;23.260;2023-05-10T09:41:47;9.40;;;7.43;;
12792;SDS011;6460;42.684;23.260;2023-05-10T09:44:17;8.03;;;6.93;;
12792;SDS011;6460;42.684;23.260;2023-05-10T09:46:48;9.27;;;8.37;;
12792;SDS011;6460;42.684;23.260;2023-05-10T09:49:18;7.90;;;7.10;;
12792;SDS011;6460;42.684;23.260;2023-05-10T09:51:46;9.70;;;7.33;;
12792;SDS011;6460;42.684;23.260;2023-05-10T09:54:13;8.87;;;7.30;;
12792;SDS011;6460;42.684;23.260;2023-05-10T09:56:42;8.17;;;6.97;;
12792;SDS011;6460;42.684;23.260;2023-05-10T09:59:10;8.47;;;7.20;;
12792;SDS011;6460;42.684;23.260;2023-05-10T10:01:40;10.23;;;7.10;;
12792;SDS011;6460;42.684;23.260;2023-05-10T10:04:08;9.30;;;6.83;;
12792;SDS011;6460;42.684;23.260;2023-05-10T10:06:36;7.83;;;7.07;;
12792;SDS011;6460;42.684;23.260;2023-05-10T10:09:04;9.40;;;7.80;;
12792;SDS011;6460;42.684;23.260;2023-05-10T10:11:34;7.93;;;7.13;;
12792;SDS011;6460;42.684;23.260;2023-05-10T10:14:02;8.63;;;7.07;;
12792;SDS011;6460;42.684;23.260;2023-05-10T10:16:29;8.73;;;6.77;;
12792;SDS011;6460;42.684;23.260;2023-05-10T10:18:59;9.70;;;7.60;;
12792;SDS011;6460;42.684;23.260;2023-05-10T10:21:27;8.77;;;7.87;;
12792;SDS011;6460;42.684;23.260;2023-05-10T10:23:54;12.03;;;7.67;;
12792;SDS011;6460;42.684;23.260;2023-05-10T10:26:21;7.30;;;6.60;;
12792;SDS011;6460;42.684;23.260;2023-05-10T10:28:50;10.30;;;7.33;;
12792;SDS011;6460;42.684;23.260;2023-05-10T10:31:27;8.30;;;7.40;;
12792;SDS011;6460;42.684;23.260;2023-05-10T10:34:03;8.07;;;6.83;;
12792;SDS011;6460;42.684;23.260;2023-05-10T10:36:33;8.03;;;7.23;;
12792;SDS011;6460;42.684;23.260;2023-05-10T10:39:08;7.77;;;6.30;;
12792;SDS011;6460;42.684;23.260;2023-05-10T10:41:36;7.93;;;6.67;;
12792;SDS011;6460;42.684;23.260;2023-05-10T10:47:03;8.97;;;7.17;;
12792;SDS011;6460;42.684;23.260;2023-05-10T10:49:41;8.57;;;7.33;;
12792;SDS011;6460;42.684;23.260;2023-05-10T10:52:23;11.30;;;6.13;;
12792;SDS011;6460;42.684;23.260;2023-05-10T10:54:58;8.50;;;6.57;;
12792;SDS011;6460;42.684;23.260;2023-05-10T10:57:27;8.13;;;6.17;;
12792;SDS011;6460;42.684;23.260;2023-05-10T11:02:47;6.63;;;5.87;;
12792;SDS011;6460;42.684;23.260;2023-05-10T11:08:16;6.83;;;6.13;;
12792;SDS011;6460;42.684;23.260;2023-05-10T11:10:51;7.93;;;6.60;;
12792;SDS011;6460;42.684;23.260;2023-05-10T11:13:32;9.30;;;6.10;;
12792;SDS011;6460;42.684;23.260;2023-05-10T11:16:13;8.30;;;6.57;;
12792;SDS011;6460;42.684;23.260;2023-05-10T11:18:52;7.33;;;6.63;;
12792;SDS011;6460;42.684;23.260;2023-05-10T11:21:24;9.30;;;6.47;;
12792;SDS011;6460;42.684;23.260;2023-05-10T11:23:51;8.23;;;6.20;;
12792;SDS011;6460;42.684;23.260;2023-05-10T11:26:21;6.80;;;6.13;;
12792;SDS011;6460;42.684;23.260;2023-05-10T11:28:51;7.60;;;6.73;;
12792;SDS011;6460;42.684;23.260;2023-05-10T11:31:20;6.97;;;6.27;;
12792;SDS011;6460;42.684;23.260;2023-05-10T11:33:48;9.50;;;6.53;;
12792;SDS011;6460;42.684;23.260;2023-05-10T11:36:16;6.20;;;5.57;;
12792;SDS011;6460;42.684;23.260;2023-05-10T11:38:46;7.53;;;6.40;;
12792;SDS011;6460;42.684;23.260;2023-05-10T11:41:16;7.17;;;6.27;;
12792;SDS011;6460;42.684;23.260;2023-05-10T11:43:47;8.57;;;6.33;;
12792;SDS011;6460;42.684;23.260;2023-05-10T11:46:16;7.23;;;6.30;;
12792;SDS011;6460;42.684;23.260;2023-05-10T11:48:45;8.77;;;6.43;;
12792;SDS011;6460;42.684;23.260;2023-05-10T11:51:13;6.53;;;5.50;;
12792;SDS011;6460;42.684;23.260;2023-05-10T11:53:40;6.77;;;5.83;;
12792;SDS011;6460;42.684;23.260;2023-05-10T11:56:09;9.10;;;6.60;;
12792;SDS011;6460;42.684;23.260;2023-05-10T11:58:38;6.87;;;6.13;;
12792;SDS011;6460;42.684;23.260;2023-05-10T12:04:04;7.47;;;5.73;;
12792;SDS011;6460;42.684;23.260;2023-05-10T12:06:32;7.77;;;6.30;;
12792;SDS011;6460;42.684;23.260;2023-05-10T12:09:21;6.57;;;5.90;;
12792;SDS011;6460;42.684;23.260;2023-05-10T12:33:12;10.17;;;6.87;;
12792;SDS011;6460;42.684;23.260;2023-05-10T12:35:45;9.70;;;7.10;;
12792;SDS011;6460;42.684;23.260;2023-05-10T12:40:43;8.13;;;6.80;;
12792;SDS011;6460;42.684;23.260;2023-05-10T12:43:10;8.70;;;7.30;;
12792;SDS011;6460;42.684;23.260;2023-05-10T12:45:37;8.73;;;7.23;;
12792;SDS011;6460;42.684;23.260;2023-05-10T12:48:04;8.67;;;7.50;;
12792;SDS011;6460;42.684;23.260;2023-05-10T12:50:32;8.10;;;6.70;;
12792;SDS011;6460;42.684;23.260;2023-05-10T12:52:59;8.73;;;7.60;;
12792;SDS011;6460;42.684;23.260;2023-05-10T12:55:26;9.37;;;7.80;;
12792;SDS011;6460;42.684;23.260;2023-05-10T12:57:53;8.80;;;7.20;;
12792;SDS011;6460;42.684;23.260;2023-05-10T13:00:20;9.07;;;7.30;;
12792;SDS011;6460;42.684;23.260;2023-05-10T13:02:47;11.93;;;7.73;;
12792;SDS011;6460;42.684;23.260;2023-05-10T13:05:14;8.10;;;7.27;;
12792;SDS011;6460;42.684;23.260;2023-05-10T13:07:43;9.30;;;7.53;;
12792;SDS011;6460;42.684;23.260;2023-05-10T13:10:10;9.57;;;7.80;;
12792;SDS011;6460;42.684;23.260;2023-05-10T13:28:20;10.13;;;7.67;;
12792;SDS011;6460;42.684;23.260;2023-05-10T13:30:47;9.97;;;7.63;;
12792;SDS011;6460;42.684;23.260;2023-05-10T13:33:14;10.37;;;7.50;;
12792;SDS011;6460;42.684;23.260;2023-05-10T13:35:40;8.80;;;7.20;;
12792;SDS011;6460;42.684;23.260;2023-05-10T13:38:07;9.50;;;7.50;;
12792;SDS011;6460;42.684;23.260;2023-05-10T13:40:34;9.47;;;7.70;;
12792;SDS011;6460;42.684;23.260;2023-05-10T13:43:02;11.33;;;8.30;;
12792;SDS011;6460;42.684;23.260;2023-05-10T13:45:30;8.67;;;7.03;;
12792;SDS011;6460;42.684;23.260;2023-05-10T13:47:57;8.33;;;7.37;;
12792;SDS011;6460;42.684;23.260;2023-05-10T13:50:24;8.90;;;7.37;;
12792;SDS011;6460;42.684;23.260;2023-05-10T13:52:51;9.60;;;7.47;;
12792;SDS011;6460;42.684;23.260;2023-05-10T13:58:40;9.43;;;6.93;;
12792;SDS011;6460;42.684;23.260;2023-05-10T14:01:09;9.33;;;7.87;;
12792;SDS011;6460;42.684;23.260;2023-05-10T14:03:37;10.67;;;7.63;;
12792;SDS011;6460;42.684;23.260;2023-05-10T14:06:04;9.10;;;7.27;;
12792;SDS011;6460;42.684;23.260;2023-05-10T14:08:32;8.93;;;7.23;;
12792;SDS011;6460;42.684;23.260;2023-05-10T14:10:59;8.87;;;7.20;;
12792;SDS011;6460;42.684;23.260;2023-05-10T14:13:26;10.30;;;7.77;;
12792;SDS011;6460;42.684;23.260;2023-05-10T14:15:53;7.57;;;6.77;;
12792;SDS011;6460;42.684;23.260;2023-05-10T14:18:22;8.90;;;7.03;;
12792;SDS011;6460;42.684;23.260;2023-05-10T14:20:49;10.03;;;7.33;;
12792;SDS011;6460;42.684;23.260;2023-05-10T14:23:16;9.63;;;7.50;;
12792;SDS011;6460;42.684;23.260;2023-05-10T14:25:44;11.50;;;8.47;;
12792;SDS011;6460;42.684;23.260;2023-05-10T14:28:12;10.57;;;7.43;;
12792;SDS011;6460;42.684;23.260;2023-05-10T14:30:39;9.33;;;7.37;;
12792;SDS011;6460;42.684;23.260;2023-05-10T14:33:06;9.47;;;7.10;;
12792;SDS011;6460;42.684;23.260;2023-05-10T14:35:35;8.37;;;6.60;;
12792;SDS011;6460;42.684;23.260;2023-05-10T14:38:10;8.83;;;7.00;;
12792;SDS011;6460;42.684;23.260;2023-05-10T14:40:45;7.00;;;6.30;;
12792;SDS011;6460;42.684;23.260;2023-05-10T14:43:19;8.57;;;6.60;;
12792;SDS011;6460;42.684;23.260;2023-05-10T14:45:50;9.20;;;6.90;;
12792;SDS011;6460;42.684;23.260;2023-05-10T14:48:19;9.50;;;6.97;;
12792;SDS011;6460;42.684;23.260;2023-05-10T14:50:51;8.13;;;6.87;;
12792;SDS011;6460;42.684;23.260;2023-05-10T14:53:34;8.37;;;7.33;;
12792;SDS011;6460;42.684;23.260;2023-05-10T14:56:23;9.33;;;7.13;;
12792;SDS011;6460;42.684;23.260;2023-05-10T14:58:57;9.83;;;7.30;;
12792;SDS011;6460;42.684;23.260;2023-05-10T15:01:29;10.57;;;7.57;;
12792;SDS011;6460;42.684;23.260;2023-05-10T15:04:10;9.10;;;7.67;;
12792;SDS011;6460;42.684;23.260;2023-05-10T15:06:43;9.23;;;7.33;;
12792;SDS011;6460;42.684;23.260;2023-05-10T15:09:12;9.10;;;7.30;;
12792;SDS011;6460;42.684;23.260;2023-05-10T15:11:48;13.20;;;10.57;;
12792;SDS011;6460;42.684;23.260;2023-05-10T15:14:21;7.70;;;6.70;;
12792;SDS011;6460;42.684;23.260;2023-05-10T15:17:01;9.17;;;7.10;;
12792;SDS011;6460;42.684;23.260;2023-05-10T15:19:38;8.73;;;6.90;;
12792;SDS011;6460;42.684;23.260;2023-05-10T15:22:08;8.33;;;7.10;;
12792;SDS011;6460;42.684;23.260;2023-05-10T15:24:36;8.30;;;6.93;;
12792;SDS011;6460;42.684;23.260;2023-05-10T15:27:06;7.93;;;6.63;;
12792;SDS011;6460;42.684;23.260;2023-05-10T15:29:34;8.27;;;7.30;;
12792;SDS011;6460;42.684;23.260;2023-05-10T15:32:01;10.47;;;7.97;;
12792;SDS011;6460;42.684;23.260;2023-05-10T15:34:29;10.30;;;8.10;;
12792;SDS011;6460;42.684;23.260;2023-05-10T15:37:02;10.53;;;7.50;;
12792;SDS011;6460;42.684;23.260;2023-05-10T15:39:33;11.00;;;7.40;;
12792;SDS011;6460;42.684;23.260;2023-05-10T15:42:02;10.33;;;7.83;;
12792;SDS011;6460;42.684;23.260;2023-05-10T15:44:33;10.57;;;7.07;;
12792;SDS011;6460;42.684;23.260;2023-05-10T15:54:45;8.67;;;6.53;;
12792;SDS011;6460;42.684;23.260;2023-05-10T15:57:12;8.60;;;7.07;;
12792;SDS011;6460;42.684;23.260;2023-05-10T15:59:42;10.87;;;8.43;;
12792;SDS011;6460;42.684;23.260;2023-05-10T16:02:15;9.43;;;7.50;;